sensor_id;sensor_type;location;lat;lon;timestamp;pressure;altitude;pressure_sealevel;temperature;humidity
73817;BME280;62146;53.232;-1.304;2023-04-24T00:00:59;99571.88;;;8.77;100.00
73817;BME280;62146;53.232;-1.304;2023-04-24T00:03:27;99565.81;;;8.76;100.00
73817;BME280;62146;53.232;-1.304;2023-04-24T00:05:55;99572.13;;;8.75;100.00
73817;BME280;62146;53.232;-1.304;2023-04-24T00:08:21;99576.63;;;8.75;100.00
73817;BME280;62146;53.232;-1.304;2023-04-24T00:10:50;99575.03;;;8.74;100.00
73817;BME280;62146;53.232;-1.304;2023-04-24T00:13:16;99576.56;;;8.70;100.00
73817;BME280;62146;53.232;-1.304;2023-04-24T00:15:43;99577.84;;;8.67;100.00
73817;BME280;62146;53.232;-1.304;2023-04-24T00:18:09;99586.53;;;8.63;100.00
73817;BME280;62146;53.232;-1.304;2023-04-24T00:20:36;99585.16;;;8.60;100.00
73817;BME280;62146;53.232;-1.304;2023-04-24T00:23:03;99580.13;;;8.59;100.00
73817;BME280;62146;53.232;-1.304;2023-04-24T00:25:31;99581.97;;;8.58;100.00
73817;BME280;62146;53.232;-1.304;2023-04-24T00:27:57;99584.06;;;8.56;100.00
73817;BME280;62146;53.232;-1.304;2023-04-24T00:30:24;99582.16;;;8.52;100.00
73817;BME280;62146;53.232;-1.304;2023-04-24T00:32:50;99583.19;;;8.51;100.00
73817;BME280;62146;53.232;-1.304;2023-04-24T00:35:17;99590.28;;;8.46;100.00
73817;BME280;62146;53.232;-1.304;2023-04-24T00:37:49;99585.97;;;8.40;100.00
73817;BME280;62146;53.232;-1.304;2023-04-24T00:40:16;99596.47;;;8.35;100.00
73817;BME280;62146;53.232;-1.304;2023-04-24T00:42:43;99596.69;;;8.33;100.00
73817;BME280;62146;53.232;-1.304;2023-04-24T00:45:10;99593.03;;;8.34;100.00
73817;BME280;62146;53.232;-1.304;2023-04-24T00:47:36;99593.25;;;8.33;100.00
73817;BME280;62146;53.232;-1.304;2023-04-24T00:50:05;99592.72;;;8.31;100.00
73817;BME280;62146;53.232;-1.304;2023-04-24T00:52:32;99590.00;;;8.26;100.00
73817;BME280;62146;53.232;-1.304;2023-04-24T00:54:59;99597.06;;;8.21;100.00
73817;BME280;62146;53.232;-1.304;2023-04-24T00:57:26;99598.28;;;8.13;100.00
73817;BME280;62146;53.232;-1.304;2023-04-24T00:59:53;99600.28;;;8.06;100.00
73817;BME280;62146;53.232;-1.304;2023-04-24T01:02:20;99594.34;;;8.00;100.00
73817;BME280;62146;53.232;-1.304;2023-04-24T01:04:50;99604.84;;;7.95;100.00
73817;BME280;62146;53.232;-1.304;2023-04-24T01:07:20;99605.50;;;7.85;100.00
73817;BME280;62146;53.232;-1.304;2023-04-24T01:09:48;99606.44;;;7.79;100.00
73817;BME280;62146;53.232;-1.304;2023-04-24T01:12:18;99606.91;;;7.76;100.00
73817;BME280;62146;53.232;-1.304;2023-04-24T01:14:45;99602.03;;;7.69;100.00
73817;BME280;62146;53.232;-1.304;2023-04-24T01:17:11;99605.25;;;7.71;100.00
73817;BME280;62146;53.232;-1.304;2023-04-24T01:19:38;99611.16;;;7.61;100.00
73817;BME280;62146;53.232;-1.304;2023-04-24T01:22:10;99608.44;;;7.56;100.00
73817;BME280;62146;53.232;-1.304;2023-04-24T01:24:38;99617.41;;;7.55;100.00
73817;BME280;62146;53.232;-1.304;2023-04-24T01:27:05;99613.19;;;7.54;100.00
73817;BME280;62146;53.232;-1.304;2023-04-24T01:29:31;99615.97;;;7.48;100.00
73817;BME280;62146;53.232;-1.304;2023-04-24T01:31:58;99618.53;;;7.43;100.00
73817;BME280;62146;53.232;-1.304;2023-04-24T01:34:25;99620.25;;;7.38;100.00
73817;BME280;62146;53.232;-1.304;2023-04-24T01:36:52;99619.72;;;7.36;100.00
73817;BME280;62146;53.232;-1.304;2023-04-24T01:39:18;99628.56;;;7.30;100.00
73817;BME280;62146;53.232;-1.304;2023-04-24T01:41:46;99622.16;;;7.26;100.00
73817;BME280;62146;53.232;-1.304;2023-04-24T01:44:13;99636.19;;;7.15;100.00
73817;BME280;62146;53.232;-1.304;2023-04-24T01:46:41;99632.53;;;7.16;100.00
73817;BME280;62146;53.232;-1.304;2023-04-24T01:49:07;99640.91;;;7.13;100.00
73817;BME280;62146;53.232;-1.304;2023-04-24T01:51:34;99644.47;;;7.07;100.00
73817;BME280;62146;53.232;-1.304;2023-04-24T01:54:00;99649.75;;;7.07;100.00
73817;BME280;62146;53.232;-1.304;2023-04-24T01:56:29;99646.22;;;7.02;100.00
73817;BME280;62146;53.232;-1.304;2023-04-24T01:58:57;99657.50;;;6.97;100.00
73817;BME280;62146;53.232;-1.304;2023-04-24T02:01:24;99644.78;;;6.94;100.00
73817;BME280;62146;53.232;-1.304;2023-04-24T02:03:51;99647.66;;;6.93;100.00
73817;BME280;62146;53.232;-1.304;2023-04-24T02:06:18;99653.59;;;6.89;100.00
73817;BME280;62146;53.232;-1.304;2023-04-24T02:08:44;99658.78;;;6.84;100.00
73817;BME280;62146;53.232;-1.304;2023-04-24T02:11:11;99661.88;;;6.81;100.00
73817;BME280;62146;53.232;-1.304;2023-04-24T02:13:37;99655.81;;;6.80;100.00
73817;BME280;62146;53.232;-1.304;2023-04-24T02:16:04;99675.03;;;6.81;100.00
73817;BME280;62146;53.232;-1.304;2023-04-24T02:18:31;99671.63;;;6.80;100.00
73817;BME280;62146;53.232;-1.304;2023-04-24T02:20:57;99669.56;;;6.82;100.00
73817;BME280;62146;53.232;-1.304;2023-04-24T02:23:24;99675.38;;;6.84;100.00
73817;BME280;62146;53.232;-1.304;2023-04-24T02:25:51;99676.31;;;6.90;100.00
73817;BME280;62146;53.232;-1.304;2023-04-24T02:28:19;99664.94;;;6.89;100.00
73817;BME280;62146;53.232;-1.304;2023-04-24T02:30:46;99668.94;;;6.92;100.00
73817;BME280;62146;53.232;-1.304;2023-04-24T02:33:12;99662.09;;;6.91;100.00
73817;BME280;62146;53.232;-1.304;2023-04-24T02:35:39;99663.47;;;6.93;100.00
73817;BME280;62146;53.232;-1.304;2023-04-24T02:38:06;99664.72;;;6.91;100.00
73817;BME280;62146;53.232;-1.304;2023-04-24T02:40:32;99663.34;;;6.88;100.00
73817;BME280;62146;53.232;-1.304;2023-04-24T02:42:59;99666.44;;;6.85;100.00
73817;BME280;62146;53.232;-1.304;2023-04-24T02:45:25;99681.69;;;6.83;100.00
73817;BME280;62146;53.232;-1.304;2023-04-24T02:47:52;99682.94;;;6.81;100.00
73817;BME280;62146;53.232;-1.304;2023-04-24T02:50:18;99687.22;;;6.82;100.00
73817;BME280;62146;53.232;-1.304;2023-04-24T02:52:45;99687.50;;;6.85;100.00
73817;BME280;62146;53.232;-1.304;2023-04-24T02:55:12;99688.56;;;6.84;100.00
73817;BME280;62146;53.232;-1.304;2023-04-24T02:57:38;99699.69;;;6.86;100.00
73817;BME280;62146;53.232;-1.304;2023-04-24T03:00:05;99694.97;;;6.88;100.00
73817;BME280;62146;53.232;-1.304;2023-04-24T03:02:33;99706.88;;;6.91;100.00
73817;BME280;62146;53.232;-1.304;2023-04-24T03:05:00;99695.09;;;6.93;100.00
73817;BME280;62146;53.232;-1.304;2023-04-24T03:07:28;99700.13;;;6.94;100.00
73817;BME280;62146;53.232;-1.304;2023-04-24T03:09:55;99695.09;;;6.93;100.00
73817;BME280;62146;53.232;-1.304;2023-04-24T03:12:22;99696.09;;;6.92;100.00
73817;BME280;62146;53.232;-1.304;2023-04-24T03:14:50;99700.03;;;6.90;100.00
73817;BME280;62146;53.232;-1.304;2023-04-24T03:17:16;99705.84;;;6.92;100.00
73817;BME280;62146;53.232;-1.304;2023-04-24T03:19:43;99697.25;;;6.85;100.00
73817;BME280;62146;53.232;-1.304;2023-04-24T03:22:10;99695.56;;;6.79;100.00
73817;BME280;62146;53.232;-1.304;2023-04-24T03:24:37;99691.81;;;6.75;100.00
73817;BME280;62146;53.232;-1.304;2023-04-24T03:27:04;99699.69;;;6.75;100.00
73817;BME280;62146;53.232;-1.304;2023-04-24T03:29:30;99698.31;;;6.72;100.00
73817;BME280;62146;53.232;-1.304;2023-04-24T03:31:57;99702.00;;;6.71;100.00
73817;BME280;62146;53.232;-1.304;2023-04-24T03:34:24;99704.03;;;6.69;100.00
73817;BME280;62146;53.232;-1.304;2023-04-24T03:36:50;99710.34;;;6.68;100.00
73817;BME280;62146;53.232;-1.304;2023-04-24T03:39:17;99713.00;;;6.68;100.00
73817;BME280;62146;53.232;-1.304;2023-04-24T03:41:43;99721.25;;;6.72;100.00
73817;BME280;62146;53.232;-1.304;2023-04-24T03:44:10;99717.81;;;6.71;100.00
73817;BME280;62146;53.232;-1.304;2023-04-24T03:46:37;99717.34;;;6.74;100.00
73817;BME280;62146;53.232;-1.304;2023-04-24T03:49:03;99719.16;;;6.74;100.00
73817;BME280;62146;53.232;-1.304;2023-04-24T03:51:30;99718.94;;;6.75;100.00
73817;BME280;62146;53.232;-1.304;2023-04-24T03:53:57;99722.38;;;6.76;100.00
73817;BME280;62146;53.232;-1.304;2023-04-24T03:56:24;99724.75;;;6.77;100.00
73817;BME280;62146;53.232;-1.304;2023-04-24T03:58:50;99722.38;;;6.76;100.00
73817;BME280;62146;53.232;-1.304;2023-04-24T04:01:17;99728.44;;;6.76;100.00
73817;BME280;62146;53.232;-1.304;2023-04-24T04:03:45;99728.69;;;6.75;100.00
73817;BME280;62146;53.232;-1.304;2023-04-24T04:06:11;99728.69;;;6.75;100.00
73817;BME280;62146;53.232;-1.304;2023-04-24T04:08:39;99732.66;;;6.77;100.00
73817;BME280;62146;53.232;-1.304;2023-04-24T04:11:05;99729.22;;;6.77;100.00
73817;BME280;62146;53.232;-1.304;2023-04-24T04:13:32;99732.91;;;6.76;100.00
73817;BME280;62146;53.232;-1.304;2023-04-24T04:15:59;99729.94;;;6.72;100.00
73817;BME280;62146;53.232;-1.304;2023-04-24T04:18:25;99744.25;;;6.65;100.00
73817;BME280;62146;53.232;-1.304;2023-04-24T04:20:52;99741.88;;;6.64;100.00
73817;BME280;62146;53.232;-1.304;2023-04-24T04:23:18;99749.63;;;6.59;100.00
73817;BME280;62146;53.232;-1.304;2023-04-24T04:25:45;99748.50;;;6.55;100.00
73817;BME280;62146;53.232;-1.304;2023-04-24T04:28:13;99754.59;;;6.55;100.00
73817;BME280;62146;53.232;-1.304;2023-04-24T04:30:40;99752.97;;;6.54;100.00
73817;BME280;62146;53.232;-1.304;2023-04-24T04:33:06;99748.72;;;6.53;100.00
73817;BME280;62146;53.232;-1.304;2023-04-24T04:35:34;99753.75;;;6.55;100.00
73817;BME280;62146;53.232;-1.304;2023-04-24T04:38:01;99753.44;;;6.51;100.00
73817;BME280;62146;53.232;-1.304;2023-04-24T04:40:28;99757.66;;;6.52;100.00
73817;BME280;62146;53.232;-1.304;2023-04-24T04:42:54;99761.66;;;6.55;100.00
73817;BME280;62146;53.232;-1.304;2023-04-24T04:45:21;99771.63;;;6.53;100.00
73817;BME280;62146;53.232;-1.304;2023-04-24T04:47:48;99768.66;;;6.49;100.00
73817;BME280;62146;53.232;-1.304;2023-04-24T04:50:14;99779.19;;;6.49;100.00
73817;BME280;62146;53.232;-1.304;2023-04-24T04:52:42;99774.97;;;6.48;100.00
73817;BME280;62146;53.232;-1.304;2023-04-24T04:55:09;99780.56;;;6.52;100.00
73817;BME280;62146;53.232;-1.304;2023-04-24T04:57:36;99775.53;;;6.50;100.00
73817;BME280;62146;53.232;-1.304;2023-04-24T05:00:02;99781.13;;;6.54;100.00
73817;BME280;62146;53.232;-1.304;2023-04-24T05:02:31;99787.00;;;6.56;100.00
73817;BME280;62146;53.232;-1.304;2023-04-24T05:04:57;99785.25;;;6.50;100.00
73817;BME280;62146;53.232;-1.304;2023-04-24T05:07:24;99785.50;;;6.48;100.00
73817;BME280;62146;53.232;-1.304;2023-04-24T05:09:51;99788.69;;;6.50;100.00
73817;BME280;62146;53.232;-1.304;2023-04-24T05:12:18;99798.88;;;6.47;100.00
73817;BME280;62146;53.232;-1.304;2023-04-24T05:14:45;99799.91;;;6.46;100.00
73817;BME280;62146;53.232;-1.304;2023-04-24T05:17:11;99804.13;;;6.47;100.00
73817;BME280;62146;53.232;-1.304;2023-04-24T05:19:38;99801.50;;;6.47;100.00
73817;BME280;62146;53.232;-1.304;2023-04-24T05:22:05;99803.13;;;6.48;100.00
73817;BME280;62146;53.232;-1.304;2023-04-24T05:24:33;99801.06;;;6.50;100.00
73817;BME280;62146;53.232;-1.304;2023-04-24T05:27:01;99805.53;;;6.49;100.00
73817;BME280;62146;53.232;-1.304;2023-04-24T05:29:28;99807.25;;;6.55;100.00
73817;BME280;62146;53.232;-1.304;2023-04-24T05:31:57;99810.44;;;6.57;100.00
73817;BME280;62146;53.232;-1.304;2023-04-24T05:34:24;99812.03;;;6.58;100.00
73817;BME280;62146;53.232;-1.304;2023-04-24T05:36:50;99820.09;;;6.63;100.00
73817;BME280;62146;53.232;-1.304;2023-04-24T05:39:17;99818.59;;;6.67;100.00
73817;BME280;62146;53.232;-1.304;2023-04-24T05:41:44;99813.44;;;6.72;100.00
73817;BME280;62146;53.232;-1.304;2023-04-24T05:44:11;99818.59;;;6.78;100.00
73817;BME280;62146;53.232;-1.304;2023-04-24T05:46:37;99811.03;;;6.82;100.00
73817;BME280;62146;53.232;-1.304;2023-04-24T05:49:04;99821.69;;;6.87;100.00
73817;BME280;62146;53.232;-1.304;2023-04-24T05:51:30;99827.50;;;6.89;100.00
73817;BME280;62146;53.232;-1.304;2023-04-24T05:53:57;99831.28;;;6.93;100.00
73817;BME280;62146;53.232;-1.304;2023-04-24T05:56:24;99830.84;;;6.95;100.00
73817;BME280;62146;53.232;-1.304;2023-04-24T05:58:51;99830.16;;;7.00;100.00
73817;BME280;62146;53.232;-1.304;2023-04-24T06:01:18;99830.50;;;7.03;100.00
73817;BME280;62146;53.232;-1.304;2023-04-24T06:03:45;99837.34;;;7.04;100.00
73817;BME280;62146;53.232;-1.304;2023-04-24T06:06:12;99835.06;;;7.08;100.00
73817;BME280;62146;53.232;-1.304;2023-04-24T06:08:39;99837.25;;;7.11;100.00
73817;BME280;62146;53.232;-1.304;2023-04-24T06:11:06;99838.03;;;7.11;100.00
73817;BME280;62146;53.232;-1.304;2023-04-24T06:13:32;99845.25;;;7.16;100.00
73817;BME280;62146;53.232;-1.304;2023-04-24T06:15:59;99836.91;;;7.19;100.00
73817;BME280;62146;53.232;-1.304;2023-04-24T06:18:25;99846.19;;;7.21;100.00
73817;BME280;62146;53.232;-1.304;2023-04-24T06:20:52;99849.38;;;7.23;100.00
73817;BME280;62146;53.232;-1.304;2023-04-24T06:23:18;99839.41;;;7.25;100.00
73817;BME280;62146;53.232;-1.304;2023-04-24T06:25:45;99841.59;;;7.28;100.00
73817;BME280;62146;53.232;-1.304;2023-04-24T06:28:12;99844.78;;;7.30;100.00
73817;BME280;62146;53.232;-1.304;2023-04-24T06:30:40;99844.34;;;7.33;100.00
73817;BME280;62146;53.232;-1.304;2023-04-24T06:33:07;99844.66;;;7.36;100.00
73817;BME280;62146;53.232;-1.304;2023-04-24T06:35:46;99842.59;;;7.38;100.00
73817;BME280;62146;53.232;-1.304;2023-04-24T06:38:12;99850.03;;;7.41;100.00
73817;BME280;62146;53.232;-1.304;2023-04-24T06:40:39;99842.47;;;7.45;100.00
73817;BME280;62146;53.232;-1.304;2023-04-24T06:43:06;99842.81;;;7.48;100.00
73817;BME280;62146;53.232;-1.304;2023-04-24T06:45:32;99843.38;;;7.50;100.00
73817;BME280;62146;53.232;-1.304;2023-04-24T06:47:59;99851.63;;;7.53;100.00
73817;BME280;62146;53.232;-1.304;2023-04-24T06:50:26;99856.44;;;7.56;100.00
73817;BME280;62146;53.232;-1.304;2023-04-24T06:52:52;99859.66;;;7.58;100.00
73817;BME280;62146;53.232;-1.304;2023-04-24T06:55:19;99861.25;;;7.59;100.00
73817;BME280;62146;53.232;-1.304;2023-04-24T06:57:45;99857.81;;;7.59;100.00
73817;BME280;62146;53.232;-1.304;2023-04-24T07:00:12;99857.81;;;7.59;100.00
73817;BME280;62146;53.232;-1.304;2023-04-24T07:02:39;99869.97;;;7.60;100.00
73817;BME280;62146;53.232;-1.304;2023-04-24T07:05:06;99866.28;;;7.61;100.00
73817;BME280;62146;53.232;-1.304;2023-04-24T07:07:35;99867.06;;;7.61;100.00
73817;BME280;62146;53.232;-1.304;2023-04-24T07:10:05;99872.34;;;7.61;100.00
73817;BME280;62146;53.232;-1.304;2023-04-24T07:12:31;99872.94;;;7.63;100.00
73817;BME280;62146;53.232;-1.304;2023-04-24T07:15:00;99873.72;;;7.64;100.00
73817;BME280;62146;53.232;-1.304;2023-04-24T07:17:27;99878.75;;;7.65;100.00
73817;BME280;62146;53.232;-1.304;2023-04-24T07:19:53;99887.81;;;7.69;100.00
73817;BME280;62146;53.232;-1.304;2023-04-24T07:22:20;99878.09;;;7.70;100.00
73817;BME280;62146;53.232;-1.304;2023-04-24T07:24:47;99888.16;;;7.73;100.00
73817;BME280;62146;53.232;-1.304;2023-04-24T07:27:13;99893.78;;;7.76;100.00
73817;BME280;62146;53.232;-1.304;2023-04-24T07:29:41;99890.69;;;7.79;100.00
73817;BME280;62146;53.232;-1.304;2023-04-24T07:32:08;99902.38;;;7.83;100.00
73817;BME280;62146;53.232;-1.304;2023-04-24T07:34:35;99900.66;;;7.88;100.00
73817;BME280;62146;53.232;-1.304;2023-04-24T07:37:02;99901.53;;;7.94;100.00
73817;BME280;62146;53.232;-1.304;2023-04-24T07:39:29;99905.06;;;7.99;100.00
73817;BME280;62146;53.232;-1.304;2023-04-24T07:41:56;99907.34;;;8.07;100.00
73817;BME280;62146;53.232;-1.304;2023-04-24T07:44:22;99901.47;;;8.16;100.00
73817;BME280;62146;53.232;-1.304;2023-04-24T07:46:49;99900.53;;;8.22;100.00
73817;BME280;62146;53.232;-1.304;2023-04-24T07:49:15;99904.88;;;8.28;100.00
73817;BME280;62146;53.232;-1.304;2023-04-24T07:51:45;99905.53;;;8.35;100.00
73817;BME280;62146;53.232;-1.304;2023-04-24T07:54:12;99909.06;;;8.40;100.00
73817;BME280;62146;53.232;-1.304;2023-04-24T07:56:39;99905.22;;;8.48;100.00
73817;BME280;62146;53.232;-1.304;2023-04-24T07:59:08;99917.50;;;8.54;100.00
73817;BME280;62146;53.232;-1.304;2023-04-24T08:01:36;99911.03;;;8.61;100.00
73817;BME280;62146;53.232;-1.304;2023-04-24T08:04:03;99910.06;;;8.67;100.00
73817;BME280;62146;53.232;-1.304;2023-04-24T08:06:29;99908.41;;;8.77;100.00
73817;BME280;62146;53.232;-1.304;2023-04-24T08:08:57;99904.31;;;8.86;100.00
73817;BME280;62146;53.232;-1.304;2023-04-24T08:11:24;99910.56;;;8.96;100.00
73817;BME280;62146;53.232;-1.304;2023-04-24T08:13:51;99912.31;;;9.07;100.00
73817;BME280;62146;53.232;-1.304;2023-04-24T08:16:18;99906.16;;;9.18;100.00
73817;BME280;62146;53.232;-1.304;2023-04-24T08:18:45;99903.16;;;9.31;100.00
73817;BME280;62146;53.232;-1.304;2023-04-24T08:21:11;99911.78;;;9.42;100.00
73817;BME280;62146;53.232;-1.304;2023-04-24T08:23:43;99916.50;;;9.57;100.00
73817;BME280;62146;53.232;-1.304;2023-04-24T08:26:10;99916.69;;;9.71;100.00
73817;BME280;62146;53.232;-1.304;2023-04-24T08:28:37;99919.53;;;9.86;100.00
73817;BME280;62146;53.232;-1.304;2023-04-24T08:31:04;99920.28;;;10.03;100.00
73817;BME280;62146;53.232;-1.304;2023-04-24T08:33:31;99922.06;;;10.18;100.00
73817;BME280;62146;53.232;-1.304;2023-04-24T08:36:04;99916.66;;;10.35;100.00
73817;BME280;62146;53.232;-1.304;2023-04-24T08:38:31;99917.09;;;10.48;100.00
73817;BME280;62146;53.232;-1.304;2023-04-24T08:40:59;99920.88;;;10.57;100.00
73817;BME280;62146;53.232;-1.304;2023-04-24T08:43:27;99923.88;;;10.65;100.00
73817;BME280;62146;53.232;-1.304;2023-04-24T08:45:56;99915.41;;;10.68;100.00
73817;BME280;62146;53.232;-1.304;2023-04-24T08:48:23;99923.19;;;10.74;100.00
73817;BME280;62146;53.232;-1.304;2023-04-24T08:50:58;99921.38;;;10.85;100.00
73817;BME280;62146;53.232;-1.304;2023-04-24T08:53:26;99923.09;;;10.96;100.00
73817;BME280;62146;53.232;-1.304;2023-04-24T08:55:54;99925.31;;;11.08;100.00
73817;BME280;62146;53.232;-1.304;2023-04-24T08:58:22;99929.63;;;11.19;100.00
73817;BME280;62146;53.232;-1.304;2023-04-24T09:00:53;99917.75;;;11.26;100.00
73817;BME280;62146;53.232;-1.304;2023-04-24T09:03:21;99920.47;;;11.36;100.00
73817;BME280;62146;53.232;-1.304;2023-04-24T09:05:49;99925.88;;;11.46;100.00
73817;BME280;62146;53.232;-1.304;2023-04-24T09:08:18;99927.78;;;11.55;100.00
73817;BME280;62146;53.232;-1.304;2023-04-24T09:10:45;99936.06;;;11.64;100.00
73817;BME280;62146;53.232;-1.304;2023-04-24T09:13:16;99929.75;;;11.70;100.00
73817;BME280;62146;53.232;-1.304;2023-04-24T09:15:44;99935.88;;;11.75;100.00
73817;BME280;62146;53.232;-1.304;2023-04-24T09:18:11;99940.97;;;11.81;100.00
73817;BME280;62146;53.232;-1.304;2023-04-24T09:20:56;99944.72;;;11.90;100.00
73817;BME280;62146;53.232;-1.304;2023-04-24T09:23:26;99945.00;;;11.99;100.00
73817;BME280;62146;53.232;-1.304;2023-04-24T09:25:57;99937.09;;;12.08;100.00
73817;BME280;62146;53.232;-1.304;2023-04-24T09:28:39;99942.19;;;12.20;100.00
73817;BME280;62146;53.232;-1.304;2023-04-24T09:31:13;99948.59;;;12.33;100.00
73817;BME280;62146;53.232;-1.304;2023-04-24T09:34:00;99955.59;;;12.49;100.00
73817;BME280;62146;53.232;-1.304;2023-04-24T09:39:09;99947.69;;;12.79;100.00
73817;BME280;62146;53.232;-1.304;2023-04-24T09:44:22;99946.91;;;12.93;100.00
73817;BME280;62146;53.232;-1.304;2023-04-24T09:46:52;99955.44;;;12.95;100.00
73817;BME280;62146;53.232;-1.304;2023-04-24T09:49:24;99968.19;;;12.93;100.00
73817;BME280;62146;53.232;-1.304;2023-04-24T09:51:51;99965.53;;;12.88;100.00
73817;BME280;62146;53.232;-1.304;2023-04-24T09:54:20;99967.13;;;12.84;100.00
73817;BME280;62146;53.232;-1.304;2023-04-24T09:56:48;99961.81;;;12.84;100.00
73817;BME280;62146;53.232;-1.304;2023-04-24T09:59:17;99962.31;;;12.86;100.00
73817;BME280;62146;53.232;-1.304;2023-04-24T10:01:44;99967.41;;;12.92;100.00
73817;BME280;62146;53.232;-1.304;2023-04-24T10:06:44;99974.84;;;13.00;100.00
73817;BME280;62146;53.232;-1.304;2023-04-24T10:09:11;99980.69;;;13.02;100.00
73817;BME280;62146;53.232;-1.304;2023-04-24T10:11:43;99974.34;;;13.03;100.00
73817;BME280;62146;53.232;-1.304;2023-04-24T10:14:15;99973.00;;;13.01;100.00
73817;BME280;62146;53.232;-1.304;2023-04-24T10:16:42;99982.56;;;13.02;100.00
73817;BME280;62146;53.232;-1.304;2023-04-24T10:19:10;99983.63;;;13.06;100.00
73817;BME280;62146;53.232;-1.304;2023-04-24T10:21:39;99973.53;;;13.12;100.00
73817;BME280;62146;53.232;-1.304;2023-04-24T10:24:09;99977.28;;;13.21;100.00
73817;BME280;62146;53.232;-1.304;2023-04-24T10:26:36;99980.19;;;13.30;100.00
73817;BME280;62146;53.232;-1.304;2023-04-24T10:29:05;99985.50;;;13.39;100.00
73817;BME280;62146;53.232;-1.304;2023-04-24T10:31:36;99982.84;;;13.49;100.00
73817;BME280;62146;53.232;-1.304;2023-04-24T10:34:05;99983.91;;;13.58;100.00
73817;BME280;62146;53.232;-1.304;2023-04-24T10:36:34;99987.09;;;13.65;100.00
73817;BME280;62146;53.232;-1.304;2023-04-24T10:39:02;99990.78;;;13.74;100.00
73817;BME280;62146;53.232;-1.304;2023-04-24T10:41:30;99978.81;;;13.86;100.00
73817;BME280;62146;53.232;-1.304;2023-04-24T10:44:14;99981.19;;;14.02;100.00
73817;BME280;62146;53.232;-1.304;2023-04-24T10:46:46;99978.97;;;14.19;100.00
73817;BME280;62146;53.232;-1.304;2023-04-24T10:49:15;99981.59;;;14.34;100.00
73817;BME280;62146;53.232;-1.304;2023-04-24T10:51:52;99983.94;;;14.45;100.00
73817;BME280;62146;53.232;-1.304;2023-04-24T10:54:33;99987.09;;;14.52;100.00
73817;BME280;62146;53.232;-1.304;2023-04-24T10:59:51;99988.94;;;14.56;100.00
73817;BME280;62146;53.232;-1.304;2023-04-24T11:02:35;99982.03;;;14.55;100.00
73817;BME280;62146;53.232;-1.304;2023-04-24T11:05:04;99978.56;;;14.55;100.00
73817;BME280;62146;53.232;-1.304;2023-04-24T11:10:43;99974.41;;;14.77;100.00
73817;BME280;62146;53.232;-1.304;2023-04-24T11:13:10;99979.66;;;14.92;100.00
73817;BME280;62146;53.232;-1.304;2023-04-24T11:15:41;99992.41;;;14.99;100.00
73817;BME280;62146;53.232;-1.304;2023-04-24T11:18:15;99992.66;;;15.03;100.00
73817;BME280;62146;53.232;-1.304;2023-04-24T11:20:43;99994.81;;;15.01;100.00
73817;BME280;62146;53.232;-1.304;2023-04-24T11:23:12;99994.03;;;15.00;100.00
73817;BME280;62146;53.232;-1.304;2023-04-24T11:25:39;100000.44;;;14.99;100.00
73817;BME280;62146;53.232;-1.304;2023-04-24T11:28:05;99998.59;;;14.95;100.00
73817;BME280;62146;53.232;-1.304;2023-04-24T11:30:33;99999.44;;;14.91;100.00
73817;BME280;62146;53.232;-1.304;2023-04-24T11:33:04;100004.53;;;14.87;100.00
73817;BME280;62146;53.232;-1.304;2023-04-24T11:35:35;100008.03;;;14.83;100.00
73817;BME280;62146;53.232;-1.304;2023-04-24T11:38:06;100005.91;;;14.80;100.00
73817;BME280;62146;53.232;-1.304;2023-04-24T11:40:36;100008.06;;;14.78;100.00
73817;BME280;62146;53.232;-1.304;2023-04-24T11:43:06;100011.78;;;14.77;100.00
73817;BME280;62146;53.232;-1.304;2023-04-24T11:45:33;100010.19;;;14.76;100.00
73817;BME280;62146;53.232;-1.304;2023-04-24T11:48:02;100022.22;;;14.78;100.00
73817;BME280;62146;53.232;-1.304;2023-04-24T11:50:29;100011.53;;;14.78;100.00
73817;BME280;62146;53.232;-1.304;2023-04-24T11:52:56;100021.66;;;14.81;100.00
73817;BME280;62146;53.232;-1.304;2023-04-24T11:57:54;100032.03;;;14.88;100.00
73817;BME280;62146;53.232;-1.304;2023-04-24T12:02:51;100029.81;;;14.99;100.00
73817;BME280;62146;53.232;-1.304;2023-04-24T12:05:25;100029.25;;;15.07;100.00
73817;BME280;62146;53.232;-1.304;2023-04-24T12:07:53;100029.25;;;15.12;100.00
73817;BME280;62146;53.232;-1.304;2023-04-24T12:10:24;100036.16;;;15.13;100.00
73817;BME280;62146;53.232;-1.304;2023-04-24T12:12:51;100032.16;;;15.11;100.00
73817;BME280;62146;53.232;-1.304;2023-04-24T12:15:20;100048.78;;;15.08;100.00
73817;BME280;62146;53.232;-1.304;2023-04-24T12:17:47;100056.75;;;15.03;100.00
73817;BME280;62146;53.232;-1.304;2023-04-24T12:20:14;100061.09;;;14.94;100.00
73817;BME280;62146;53.232;-1.304;2023-04-24T12:22:49;100063.81;;;14.84;100.00
73817;BME280;62146;53.232;-1.304;2023-04-24T12:25:17;100070.25;;;14.78;100.00
73817;BME280;62146;53.232;-1.304;2023-04-24T12:27:46;100071.63;;;14.71;100.00
73817;BME280;62146;53.232;-1.304;2023-04-24T12:30:16;100075.66;;;14.64;100.00
73817;BME280;62146;53.232;-1.304;2023-04-24T12:32:48;100078.09;;;14.55;100.00
73817;BME280;62146;53.232;-1.304;2023-04-24T12:35:19;100079.44;;;14.53;100.00
73817;BME280;62146;53.232;-1.304;2023-04-24T12:37:47;100074.91;;;14.48;100.00
73817;BME280;62146;53.232;-1.304;2023-04-24T12:40:14;100070.66;;;14.47;100.00
73817;BME280;62146;53.232;-1.304;2023-04-24T12:42:46;100074.94;;;14.44;100.00
73817;BME280;62146;53.232;-1.304;2023-04-24T12:45:13;100073.31;;;14.43;100.00
73817;BME280;62146;53.232;-1.304;2023-04-24T12:47:41;100078.13;;;14.46;100.00
73817;BME280;62146;53.232;-1.304;2023-04-24T12:50:10;100075.19;;;14.47;100.00
73817;BME280;62146;53.232;-1.304;2023-04-24T12:52:38;100073.03;;;14.49;100.00
73817;BME280;62146;53.232;-1.304;2023-04-24T12:55:06;100074.63;;;14.50;100.00
73817;BME280;62146;53.232;-1.304;2023-04-24T12:57:38;100067.97;;;14.52;100.00
73817;BME280;62146;53.232;-1.304;2023-04-24T13:00:06;100066.38;;;14.51;100.00
73817;BME280;62146;53.232;-1.304;2023-04-24T13:02:34;100062.63;;;14.52;100.00
73817;BME280;62146;53.232;-1.304;2023-04-24T13:05:01;100070.09;;;14.55;100.00
73817;BME280;62146;53.232;-1.304;2023-04-24T13:07:28;100072.19;;;14.58;100.00